BIRK/RKV METAR and TAF weather

Enter ICAO airport designator
Station Type Date Time Source
BIRK METAR 2022/05/23 15:00 UTC NOAA

BIRK 231500Z 29011KT 9999 FEW035CB SCT100 10/03 Q1000


Station Type Date Time Source
BIRK Decoded METAR 2022/05/23 15:00 UTC NOAA

Reykjavik, Iceland (BIRK) 64-08N 021-54W 61M
May 23, 2022 - 11:00 AM EDT / 2022.05.23 1500 UTC
Wind: from the WNW (290 degrees) at 13 MPH (11 KT):0
Visibility: greater than 7 mile(s):0
Sky conditions: partly cloudy
Weather: Cumulonimbus clouds observed
Temperature: 50 F (10 C)
Dew Point: 37 F (3 C)
Relative Humidity: 61%
Pressure (altimeter): 29.53 in. Hg (1000 hPa)
ob: BIRK 231500Z 29011KT 9999 FEW035CB SCT100 10/03 Q1000
cycle: 15

Station Type Date Time Source
BIRK TAF 2022/05/23 15:22 UTC NOAA

TAF BIRK 231318Z 2315/2415 28010KT 9999 -SHRA SCT025 TX13/2315Z TN06/2406Z
BECMG 2400/2402 18008KT SCT020 BKN030
TEMPO 2406/2415 SHRA BKN015TCU

Example: see airport list